Terminal Aerodrome Forecast
Issued by NWS

Home | Current Version | Previous Version | Text Only | Print | Product List | Glossary On
Versions: 1 2 3 4 5 6 7 8 9 10 11 12 13 14
000
FTUS43 KMPX 241548 AAA
TAFRNH
TAF AMD
KRNH 241548Z 2416/2512 12006KT P6SM VCSH OVC080
     FM241730 11008KT P6SM -RA OVC050
     FM242300 07005KT 6SM BR OVC020
     FM250400 03003KT 4SM BR VCSH OVC009=

USA.gov is the U.S. government's official web portal to all federal, state and local government web resources and services.